Palonegro Airport
SKBG : now visible

Airfield :











YOU CAN JOIN US ON...

 
LOGIN :

Register | Disclaimer

   EN    FR    IT 

 









Legend :    VFR   Marginal VFR   IFR   Intensive IFR   Very Intensive IFR
Visi :
Ceiling :
>= 8 km
>= 3000ft
5 to 8 km
1000 to 3000 ft
1500m to 5 km
500 to 1000 ft
800 to 1500m
200 to 500 ft
< 800m
< 200 ft
Symbols :   Thunderstorms  Fog  Heavy snow  Heavy precipitations  Wind > 20 kt






- Airport Elevation : 3897 ft
- IATA code : BGA


SKBG - Palonegro

CURRENT METAR :
  • 031800Z 34006KT 9999 SCT015 SCT070 28/19 A3003

EXPIRED METARs :
  • 031700Z 31006KT 9999 SCT015TCU SCT240 28/19 A3004 RMK TCU/E
  • 031600Z 05003KT 9999 SCT015 SCT240 27/18 A3005

TAF TAF SKBG
Valid from the 03 at 18:00 until the 04 at 18:00 UTC


031630Z 0318/0418 32010KT 9999 SCT015 SCT070
PROB40
TEMPO 0321/0401 4000 TSRA BCFG BKN010CB
BECMG 0401/04032 00000KT
BECMG 0415/0417 32010KT TX29/0319Z TN18/0411Z
SKED FIR / South America



MET'MAP, your aeronautical weather chart ! - Copyright ORBIFLY December 2007 - Disclaimer

ORBIFLY MET'MAP TEAM :

Programming & Development : Alexandra Zaïnal
Concept & original design : Baudouin d'Aumeries
Assistance for programming : Marc-Olivier Méhu
Technical & hardware support : Manuel Goepfert

Contact : metmap@orbifly.com




SOURCES & CREDITS :

   NOAA       Earth
Advisory